Date TemperatureHighC TemperatureAvgC TemperatureLowC DewpointHighC DewpointAvgC DewpointLowC HumidityHigh HumidityAvg HumidityLow PressureMaxhPa PressureMinhPa WindSpeedMaxKMH WindSpeedAvgKMH GustSpeedMaxKMH PrecipitationSumCM
2014-12-31 6.0 1.1 -2.7 -7.4 -12.6 -17.9 63 37 21 1012 1006 39 5 39 0.00
2015-1-1 10.0 2.3 -5.2 -6.4 -11.2 -15.6 55 38 21 1016 1010 19 2 19 0.00
2015-1-2 18.1 6.0 -1.2 3.6 -2.4 -7.6 86 60 24 1016 1013 9 1 9 0.00
2015-1-3 17.7 9.4 4.5 8.9 3.9 0.6 98 73 34 1013 1005 11 1 11 0.00
2015-1-4 17.8 11.1 6.3 12.1 5.6 -10.2 97 73 20 1010 1002 22 1 22 0.00
2015-1-5 17.0 7.7 1.6 -2.3 -8.3 -12.0 75 34 18 1013 1009 15 2 15 0.00
2015-1-6 14.2 6.3 1.1 8.9 3.4 -2.7 98 83 58 1010 1006 6 0 6 0.00
2015-1-7 13.9 10.2 6.1 9.3 7.4 5.6 98 85 60 1012 1010 9 1 9 0.00
2015-1-8 15.0 9.6 4.9 8.9 6.4 4.0 98 82 55 1018 1014 13 1 13 0.00
2015-1-9 16.8 8.7 3.5 12.8 4.8 1.4 98 80 38 1018 1012 9 1 9 0.00
2015-1-10 18.2 9.7 5.4 12.8 7.3 5.1 98 87 47 1012 1006 9 1 9 0.00
2015-1-11 12.5 8.4 6.7 12.1 8.0 5.6 98 97 91 1006 1001 11 1 11 0.00
2015-1-12 10.2 4.3 2.7 -0.5 -2.7 -7.6 71 61 28 1016 1013 6 0 6 0.00
2015-1-13 16.9 10.2 2.1 5.6 2.9 -2.7 83 62 38 1015 1008 11 2 11 0.00
2015-1-14 18.6 11.1 6.0 8.7 4.7 1.2 97 68 34 1009 1005 11 1 11 0.00
2015-1-15 17.5 10.4 4.4 12.9 6.9 3.0 98 82 40 1008 1004 11 2 11 0.00
2015-1-16 13.6 11.9 9.8 11.6 9.7 8.2 93 86 78 1005 999 23 3 23 0.13
2015-1-17 14.1 11.9 7.5 12.6 8.0 4.4 93 78 57 1002 997 15 1 15 0.10
2015-1-18 17.0 8.4 3.1 9.2 2.3 -2.5 96 70 28 1002 998 9 1 9 0.00
2015-1-19 17.4 6.9 0.1 10.7 -0.6 -5.2 98 64 25 998 994 8 0 8 0.00
2015-1-20 15.4 8.9 4.3 7.6 3.1 -2.3 93 69 38 994 990 11 1 11 0.10
2015-1-21 11.6 9.2 7.8 8.1 6.6 5.3 96 84 67 993 990 17 4 17 0.20
2015-1-22 14.4 9.1 7.4 9.2 5.9 1.4 97 81 47 1006 991 14 3 29 0.23
2015-1-23 12.9 9.9 7.2 5.0 4.3 2.8 81 68 57 1008 1002 33 9 33 0.00
2015-1-24 13.6 9.1 4.5 3.6 1.8 0.0 75 61 43 1010 1007 10 1 19 0.00
2015-1-25 10.3 7.9 3.9 2.2 -0.6 -3.1 81 55 43 1018 1009 13 2 32 0.00
2015-1-26 10.7 5.7 -0.7 -1.9 -3.2 -4.6 75 54 37 1021 1018 13 2 32 0.00
2015-1-27 11.3 6.4 -2.3 1.3 -1.9 -5.3 81 57 43 1017 1013 5 0 13 0.00
2015-1-28 10.5 4.0 -2.7 -4.7 -6.3 -8.4 77 50 26 1017 1013 14 1 27 0.00
2015-1-29 9.8 5.3 -1.4 7.7 0.7 -7.3 94 73 53 1012 981 8 1 29 1.42
2015-1-30 13.0 9.4 3.7 8.4 5.2 0.2 95 76 53 989 978 14 3 50 0.48
2015-1-31 12.9 6.6 2.8 5.4 2.8 0.5 93 78 58 987 984 5 1 21 0.23
2015-2-1 6.3 4.3 2.8 4.2 1.9 -1.2 93 85 60 996 987 8 1 19 0.61
2015-2-2 9.6 4.1 0.5 5.4 1.1 -0.7 93 81 64 1004 996 8 0 19 0.23
2015-2-3 7.6 5.1 2.8 5.3 2.8 1.0 90 86 80 1005 994 10 2 24 0.25
2015-2-4 9.5 7.1 5.2 7.1 5.0 3.2 91 87 79 1001 993 13 3 32 0.84
2015-2-5 11.0 7.9 6.1 8.2 5.8 4.0 93 87 79 999 994 14 3 32 2.41
2015-2-6 6.7 4.7 2.4 4.9 2.9 1.1 93 89 79 1009 995 10 1 23 0.76
2015-2-7 7.8 6.4 3.7 3.3 1.2 -0.7 79 69 63 1017 1009 13 3 39 0.03
2015-2-8 10.9 4.8 -1.1 4.6 0.7 -2.4 92 76 61 1017 1008 11 1 32 0.00
2015-2-9 10.4 4.3 -1.3 1.3 -3.2 -8.2 88 60 28 1023 1017 10 1 29 0.00
2015-2-10 15.0 6.8 2.6 7.9 4.4 1.1 96 86 61 1024 1021 5 0 19 0.00
2015-2-11 18.1 6.3 1.4 7.2 3.1 -0.1 96 82 45 1025 1021 3 0 8 0.00
2015-2-12 15.6 8.6 2.1 9.4 4.6 0.3 96 78 56 1024 1022 8 1 14 0.00
2015-2-13 14.7 9.4 4.8 9.2 6.9 4.1 97 85 64 1024 1020 8 1 19 0.00
2015-2-14 14.0 9.4 6.7 8.2 7.1 5.5 93 86 65 1020 1013 11 1 23 0.33
2015-2-15 10.2 8.4 7.8 8.3 7.1 6.4 94 91 84 1013 1011 5 1 19 2.44
2015-2-16 12.6 9.8 8.1 8.7 7.2 5.1 95 84 71 1018 1011 10 2 26 0.89
2015-2-17 16.8 12.4 8.4 6.9 5.0 0.3 81 61 45 1028 1018 13 4 34 0.03
2015-2-18 13.6 8.8 5.6 1.3 -0.7 -4.5 64 52 39 1033 1028 13 3 29 0.00
2015-2-19 13.2 7.6 2.2 1.7 -0.8 -4.6 86 58 37 1033 1029 8 1 19 0.00
2015-2-20 14.3 7.2 0.7 6.7 3.5 -0.6 93 79 49 1029 1020 11 0 16 0.13
2015-2-21 9.9 7.7 6.9 7.1 6.1 5.3 93 90 81 1019 998 8 2 27 1.35
2015-2-22 15.2 10.3 7.7 9.6 7.3 4.4 96 83 63 1002 995 11 2 23 0.43
2015-2-23 16.4 9.9 4.8 7.6 5.4 3.0 92 75 54 1005 1002 10 1 32 0.00
2015-2-24 11.4 9.0 7.6 7.8 6.7 5.5 95 86 77 1004 997 10 1 19 1.22
2015-2-25 11.4 9.8 7.8 5.7 3.0 2.1 84 63 56 1011 998 13 3 47 0.00
2015-2-26 14.7 10.7 7.6 5.2 3.5 2.0 69 61 52 1014 1011 11 3 32 0.00
2015-2-27 16.6 9.6 4.3 5.8 4.0 2.3 91 70 46 1013 1008 5 0 16 0.00
2015-2-28 15.2 8.0 2.5 5.6 3.5 1.2 91 75 48 1020 1013 8 0 16 0.00
2015-3-1 13.8 8.6 2.3 8.4 5.7 1.1 95 83 63 1020 1017 8 1 16 0.00
2015-3-2 20.0 15.0 10.4 13.4 11.1 8.4 94 78 59 1019 1012 10 1 27 0.05
2015-3-3 18.3 13.3 8.6 9.9 8.1 6.1 91 72 50 1023 1015 8 1 21 0.00
2015-3-4 14.8 10.7 6.4 10.8 8.2 4.5 94 85 73 1023 1009 5 1 13 1.88
2015-3-5 9.4 7.8 4.0 7.7 -0.7 -12.9 89 58 28 1021 1007 24 5 47 0.23
2015-3-6 12.7 8.3 2.7 -3.2 -4.7 -6.4 65 41 28 1028 1021 16 4 35 0.00
2015-3-7 14.5 7.4 0.7 -2.9 -4.5 -6.5 71 45 24 1029 1024 11 2 23 0.00
2015-3-8 13.5 8.3 2.5 0.9 -2.2 -4.9 64 48 39 1025 1021 13 2 29 0.00
2015-3-9 15.3 9.6 4.6 2.6 0.4 -2.6 76 54 40 1024 1022 11 2 27 0.00
2015-3-10 17.1 9.0 1.4 6.4 2.8 -0.4 88 68 36 1024 1021 8 1 21 0.00
2015-3-11 16.8 10.2 3.9 9.1 6.8 3.0 96 81 58 1022 1018 8 0 16 0.00
2015-3-12 15.7 9.9 4.7 6.3 0.2 -3.3 93 56 29 1021 1018 11 2 32 0.00
2015-3-13 16.4 8.4 2.0 4.3 -0.2 -2.9 84 58 31 1020 1017 11 1 24 0.00
2015-3-14 16.2 9.6 3.1 8.0 3.3 -1.2 88 67 34 1020 1017 5 1 14 0.00
2015-3-15 12.3 9.7 8.4 7.6 6.2 3.9 90 79 57 1022 1019 14 3 32 1.17
2015-3-16 11.7 10.2 8.7 9.3 8.6 7.5 95 90 85 1023 1021 8 2 26 2.13
2015-3-17 15.1 12.5 10.7 10.7 9.2 5.7 90 81 63 1023 1020 10 3 24 1.09
2015-3-18 18.5 13.2 6.7 8.4 6.4 4.7 92 66 44 1023 1021 11 2 24 0.00
2015-3-19 17.7 10.9 5.0 10.8 7.3 3.8 95 80 52 1022 1020 10 1 16 0.00
2015-3-20 18.0 11.6 5.3 10.5 5.9 0.4 95 71 41 1023 1020 8 1 16 0.00
2015-3-21 14.3 10.3 6.6 8.8 7.5 5.8 97 83 57 1021 1014 5 0 14 0.00
2015-3-22 16.1 11.5 8.6 6.7 5.5 3.9 88 67 52 1014 1011 8 2 23 0.00
2015-3-23 18.8 13.5 9.0 9.1 6.7 5.0 84 65 46 1014 1012 11 2 27 0.03
2015-3-24 16.3 13.1 8.7 11.5 9.9 7.5 93 81 68 1012 1005 8 1 19 0.05
2015-3-25 14.6 12.7 11.4 12.3 10.3 6.9 95 86 61 1005 992 13 4 45 2.36
2015-3-26 17.2 13.1 7.9 12.9 10.7 7.2 95 86 68 1008 998 11 1 21 0.05
2015-3-27 15.4 11.3 7.1 12.2 8.2 5.0 97 82 53 1011 1006 14 2 32 0.25
2015-3-28 19.8 12.6 6.7 5.6 2.6 -2.1 82 54 23 1015 1011 14 3 32 0.00
2015-3-29 18.9 11.6 3.4 10.7 3.9 -0.2 92 63 29 1015 1011 10 1 19 0.00
2015-3-30 19.9 13.3 9.2 11.3 10.0 8.1 94 82 56 1011 1007 5 1 16 0.00
2015-3-31 22.1 14.6 8.9 12.8 10.3 7.7 96 78 45 1014 1008 10 1 24 0.00
2015-4-1 20.2 15.7 9.4 9.9 6.4 1.2 96 58 30 1016 1009 45 2 24 0.00
2015-4-2 19.2 11.7 4.8 9.3 5.9 2.1 91 71 34 1017 1013 10 2 19 0.00
2015-4-3 19.9 13.9 7.2 10.1 7.3 3.7 93 68 36 1016 1013 19 3 19 0.00
2015-4-4 14.7 10.9 7.6 10.7 9.1 6.3 95 89 72 1015 1004 19 3 19 2.54
2015-4-5 12.9 9.2 3.9 6.6 3.8 0.1 90 70 51 1013 1002 34 5 34 0.00
2015-4-6 13.8 7.3 2.0 0.9 -2.1 -6.9 84 56 27 1023 1013 34 3 34 0.00
2015-4-7 14.1 7.3 0.2 -0.3 -3.2 -5.7 79 50 27 1029 1023 34 4 34 0.00
2015-4-8 18.0 9.2 0.5 5.9 1.8 -3.8 91 63 29 1029 1026 8 1 23 0.00
2015-4-9 20.6 13.0 1.9 10.9 6.5 -0.3 91 67 38 1030 1026 19 2 19 0.00
2015-4-10 18.9 11.8 5.4 12.3 7.7 4.2 94 78 47 1029 1027 19 3 19 0.00
2015-4-11 16.2 12.2 7.0 9.9 8.4 5.6 95 79 61 1028 1026 19 3 19 0.00
2015-4-12 21.2 13.1 5.3 12.1 8.8 4.3 95 77 54 1030 1027 17 2 17 0.03
2015-4-13 23.3 14.7 6.7 14.3 9.4 5.6 96 73 42 1029 1026 19 2 19 0.00
2015-4-14 22.9 14.8 6.5 10.0 7.6 4.9 92 65 40 1027 1024 19 2 19 0.00
2015-4-15 22.5 14.5 6.2 13.5 9.1 4.3 97 72 43 1025 1021 15 2 15 0.00
2015-4-16 20.7 15.0 9.4 13.5 10.7 7.5 97 77 51 1023 1019 19 3 19 0.00
2015-4-17 20.6 15.6 12.6 13.0 9.9 6.0 92 70 50 1020 1014 19 3 19 0.10
2015-4-18 21.9 16.2 12.6 14.2 12.2 10.3 94 78 50 1015 1012 19 2 19 0.00
2015-4-19 19.3 13.8 11.7 10.6 4.6 2.5 87 55 38 1017 1014 28 6 28 0.00
2015-4-20 21.4 14.9 8.4 5.9 0.9 -6.7 75 40 24 1019 1016 19 4 19 0.00
2015-4-21 24.0 15.3 5.7 7.3 3.3 -0.3 80 50 24 1024 1019 19 2 19 0.00
2015-4-22 24.6 15.3 6.0 10.0 5.9 1.4 82 57 23 1025 1021 21 3 21 0.00
2015-4-23 20.7 15.5 9.4 12.3 8.9 5.2 91 66 39 1021 1016 19 3 19 0.00
2015-4-24 21.4 16.1 11.4 14.2 12.6 10.2 95 81 60 1017 1015 19 3 19 0.00
2015-4-25 21.7 14.9 8.6 14.9 12.0 7.4 96 84 62 1019 1016 19 2 19 0.03
2015-4-26 21.1 15.9 12.1 15.0 13.4 11.1 94 86 62 1016 1011 17 2 17 0.23
2015-4-27 16.7 14.6 11.2 13.9 13.0 10.4 95 90 79 1011 1002 30 5 30 4.50
2015-4-28 20.1 14.5 9.3 13.4 11.6 8.6 97 83 63 1012 1001 19 3 19 0.18
2015-4-29 22.7 16.6 11.2 15.0 12.3 10.1 95 77 52 1018 1012 19 3 19 0.10
2015-4-30 20.5 15.3 10.3 12.6 10.8 8.9 93 76 51 1019 1017 24 3 24 0.00
2015-5-1 21.6 15.4 10.2 14.0 11.7 8.4 92 79 55 1019 1012 21 4 21 0.00
2015-5-2 25.3 18.7 14.5 17.1 14.5 12.2 93 78 53 1014 1010 19 4 19 0.03
2015-5-3 23.1 18.6 14.9 15.8 13.8 12.2 90 75 56 1015 1013 15 3 15 0.00
2015-5-4 26.7 20.2 15.1 13.6 11.6 9.1 81 60 36 1015 1013 15 3 15 0.00
2015-5-5 27.9 21.7 16.8 14.8 11.8 8.2 80 55 37 1014 1011 26 4 26 0.00
2015-5-6 28.4 20.7 16.6 18.6 16.2 14.1 91 76 50 1015 1011 23 3 23 0.00
2015-5-7 26.7 19.9 12.2 14.0 10.4 5.0 87 57 35 1017 1014 19 3 19 0.00
2015-5-8 26.2 17.4 8.1 14.8 8.1 4.2 80 57 28 1017 1015 17 2 17 0.00
2015-5-9 24.9 18.4 10.7 16.4 13.2 9.2 93 72 55 1018 1015 26 3 26 0.00
2015-5-10 29.4 21.4 13.5 15.4 12.4 7.7 88 61 28 1023 1018 19 2 19 0.00
2015-5-11 28.4 21.2 12.7 13.4 10.8 6.6 82 55 27 1024 1022 19 2 19 0.00
2015-5-12 28.9 20.7 12.2 17.4 11.9 8.1 85 60 32 1024 1022 17 2 17 0.00
2015-5-13 27.1 19.2 10.7 14.7 10.6 7.7 85 61 34 1023 1018 19 2 19 0.00
2015-5-14 27.9 20.2 13.6 17.3 13.1 9.2 84 65 46 1018 1007 19 3 19 0.00
2015-5-15 21.6 17.6 14.6 17.1 13.8 8.5 87 79 65 1011 1003 30 5 30 0.10
2015-5-16 23.7 16.4 9.9 15.4 11.9 8.4 93 76 46 1017 1011 21 2 21 0.05
2015-5-17 31.0 20.6 12.9 16.1 13.5 11.4 93 67 36 1017 1012 26 2 26 0.00
2015-5-18 29.9 22.1 13.0 15.3 12.5 9.6 85 58 33 1013 1009 19 2 19 0.00
2015-5-19 27.8 20.8 12.6 15.3 12.4 9.0 89 61 37 1010 1007 15 2 15 0.00
2015-5-20 23.2 18.6 15.4 17.8 15.2 11.6 92 81 65 1010 1008 23 3 23 0.05
2015-5-21 21.4 16.2 12.7 12.2 9.9 7.9 79 67 46 1014 1010 19 2 19 0.00
2015-5-22 16.3 12.9 9.8 12.7 9.7 6.7 94 81 59 1014 1011 24 2 24 0.76
2015-5-23 17.8 14.4 11.8 14.3 12.4 10.2 95 88 72 1013 1010 13 1 13 1.07
2015-5-24 21.3 15.5 11.6 14.6 12.4 10.6 96 84 53 1014 1012 19 2 19 0.63
2015-5-25 23.3 17.5 10.0 14.7 11.7 8.9 95 71 45 1014 1011 19 2 19 0.00
2015-5-26 22.4 16.9 12.7 16.1 13.3 10.9 90 80 53 1011 1009 15 2 15 0.18
2015-5-27 23.6 17.9 13.1 14.5 12.0 8.3 93 71 47 1016 1010 23 3 23 0.00
2015-5-28 24.9 18.8 12.3 11.2 8.2 5.4 82 52 37 1019 1016 23 3 23 0.00
2015-5-29 26.4 18.6 10.3 13.7 10.5 7.7 87 62 34 1017 1014 19 2 19 0.00
2015-5-30 24.9 18.6 12.0 16.7 13.9 9.9 95 76 53 1017 1015 19 3 19 0.00
2015-5-31 27.3 20.3 12.6 16.7 13.8 11.3 94 69 44 1018 1016 17 2 17 0.00
2015-6-1 28.5 21.2 12.6 15.9 13.3 10.8 90 64 41 1018 1016 17 2 17 0.00
2015-6-2 29.0 20.9 12.1 14.6 12.5 10.0 90 62 35 1021 1018 19 2 19 0.00
2015-6-3 29.2 21.6 12.1 16.9 13.3 9.2 83 62 43 1022 1020 19 2 19 0.00
2015-6-4 32.5 23.7 13.7 20.6 16.8 12.1 92 68 43 1022 1019 17 2 17 0.00
2015-6-5 34.2 25.9 15.7 19.9 16.9 13.5 91 62 33 1020 1016 21 2 21 0.00
2015-6-6 31.9 25.6 18.2 20.0 17.3 14.0 83 62 41 1021 1017 19 2 19 0.00
2015-6-7 32.9 25.4 17.6 22.4 18.6 15.1 90 68 45 1021 1016 23 2 23 0.30
2015-6-8 30.2 23.5 16.4 21.8 18.7 13.7 92 76 53 1018 1012 30 3 30 4.67
2015-6-9 29.1 21.9 16.2 19.9 17.2 14.1 93 76 48 1016 1013 13 1 13 0.18
2015-6-10 29.2 23.4 17.4 21.3 18.8 15.2 96 77 53 1017 1016 19 2 19 0.00
2015-6-11 31.0 24.6 16.5 19.8 17.5 14.6 90 67 44 1017 1014 19 3 19 0.00
2015-6-12 28.8 22.7 16.5 20.4 16.9 14.2 90 71 44 1017 1014 22 3 23 0.00
2015-6-13 30.6 24.9 19.6 16.8 14.5 11.6 76 54 35 1015 1011 26 4 26 0.00
2015-6-14 23.1 21.4 19.3 20.9 16.7 14.3 92 75 62 1012 1009 19 2 19 0.15
2015-6-23 29.4 24.8 19.9 19.7 18.4 16.2 92 69 49 1011 1009 19 5 19 0.15
2015-6-24 28.8 24.3 20.4 19.7 13.8 6.0 90 55 38 1019 1010 19 4 19 0.00
2015-6-25 30.4 23.1 15.0 15.1 9.8 4.8 70 44 25 1020 1017 19 4 19 0.00
2015-6-26 30.9 23.4 15.3 14.6 11.2 6.8 77 49 24 1019 1016 23 3 23 0.00
2015-6-27 31.0 23.9 15.5 15.6 13.1 11.4 78 53 35 1018 1014 19 2 19 0.00
2015-6-28 32.3 24.9 15.9 18.4 15.0 11.8 81 56 35 1017 1014 19 1 19 0.00
2015-6-29 31.8 25.6 18.0 21.5 16.6 13.3 87 61 35 1019 1017 17 2 17 0.00
2015-6-30 32.9 26.2 18.3 19.8 17.5 14.6 88 62 36 1019 1017 17 2 17 0.00
2015-7-1 22.5 22.3 22.3 18.6 18.4 18.4 79 79 79 1019 1019 2 0 2 0.00
2015-7-2 22.3 22.3 22.3 18.4 18.4 18.4 79 79 79 1019 1019 0 0 0 0.00
2015-7-3 22.3 22.3 22.3 18.4 18.4 18.4 79 79 79 1019 1019 0 0 0 0.00
2015-7-4 36.0 31.9 22.3 20.8 18.2 13.9 79 46 28 1021 1018 19 3 19 0.00
2015-7-5 35.4 28.6 20.9 24.1 19.7 16.8 78 60 38 1019 1016 19 3 19 0.00
2015-7-6 36.6 28.5 20.4 22.4 18.1 15.9 90 57 30 1019 1016 19 2 19 0.00
2015-7-7 35.7 28.3 20.2 22.5 18.5 14.9 82 58 34 1017 1013 19 2 19 0.00
2015-7-8 32.4 27.2 21.6 23.8 21.7 19.1 89 73 55 1014 1007 17 3 17 0.00
2015-7-9 35.4 29.1 22.3 23.3 20.9 18.2 90 63 42 1011 1007 17 2 17 0.00
2015-7-10 34.8 28.5 23.1 19.1 13.8 10.8 68 43 25 1015 1011 28 4 28 0.00
2015-7-11 34.4 28.2 21.9 20.2 15.2 12.0 78 47 26 1017 1014 21 2 21 0.00
2015-7-12 34.2 26.8 18.7 19.8 17.1 13.8 90 59 34 1016 1013 23 3 23 0.00
2015-7-13 31.6 26.2 19.6 23.5 20.1 15.0 89 70 48 1014 1012 13 2 13 0.00
2015-7-14 33.7 27.9 21.2 23.2 20.2 17.0 94 66 41 1015 1013 19 3 19 0.00
2015-7-15 35.4 28.4 20.7 22.4 19.6 16.2 86 61 33 1016 1015 17 2 17 0.00
2015-7-16 35.0 29.1 21.9 22.8 18.8 12.0 89 57 27 1018 1016 17 2 17 0.00
2015-7-17 35.5 28.2 20.1 24.0 18.0 14.5 90 57 31 1018 1016 17 3 17 0.00
2015-7-18 36.8 28.8 20.7 22.9 19.0 14.8 91 60 28 1018 1014 19 2 19 0.00
2015-7-19 35.6 28.9 20.9 21.1 17.8 15.4 73 53 34 1015 1012 15 2 19 0.00
2015-7-20 36.2 28.6 20.8 20.1 17.6 15.6 75 54 30 1013 1011 19 2 19 0.00
2015-7-21 37.2 28.6 20.2 20.3 17.7 15.9 78 55 32 1014 1012 19 2 19 0.00
2015-7-22 37.7 30.4 20.2 23.0 18.9 15.4 81 53 30 1014 1010 19 3 19 0.00
2015-7-23 36.7 28.8 20.3 22.7 20.1 17.3 88 62 39 1012 1007 19 2 19 0.00
2015-7-24 35.4 28.2 21.1 22.5 19.1 16.6 84 60 39 1010 1007 21 2 21 0.00
2015-7-25 33.4 27.3 22.1 23.3 20.0 17.3 81 65 49 1010 1008 21 2 21 0.00
2015-7-26 34.6 27.4 21.3 19.8 18.1 15.4 79 59 36 1010 1008 19 2 19 0.00
2015-7-27 31.7 26.2 20.7 20.9 18.9 17.7 84 66 48 1010 1007 19 3 19 0.00
2015-7-28 33.1 26.9 20.7 20.9 17.7 15.6 78 61 40 1010 1007 17 4 17 0.00
2015-7-29 31.9 25.7 19.3 22.1 17.7 13.6 78 61 44 1010 1008 17 3 17 0.00
2015-7-30 33.4 27.0 20.7 22.6 19.8 16.7 88 66 38 1009 1007 17 3 17 0.00
2015-7-31 33.4 28.2 22.9 22.3 20.2 17.0 88 65 44 1011 1008 17 2 17 0.00
2015-8-1 33.1 27.0 20.9 23.0 19.8 16.0 94 68 43 1013 1010 19 4 19 1.42
2015-8-2 32.8 26.2 19.6 21.7 18.3 15.4 96 68 37 1015 1013 15 2 15 0.03
2015-8-3 33.7 25.3 17.0 20.6 18.1 15.0 89 64 37 1015 1013 22 3 22 0.00
2015-8-4 35.9 27.7 19.4 21.3 17.6 13.3 85 58 32 1014 1012 17 3 17 0.00
2015-8-5 36.3 27.9 19.6 22.2 18.2 14.7 80 57 36 1014 1012 19 2 19 0.00
2015-8-6 38.1 29.3 20.6 20.1 17.7 14.1 82 52 26 1014 1011 19 3 19 0.00
2015-8-7 37.6 30.2 22.9 19.9 17.8 15.2 70 48 27 1013 1012 19 2 19 0.00
2015-8-8 36.4 30.1 23.7 20.4 17.9 14.8 65 46 28 1015 1013 17 3 17 0.00
2015-8-9 34.7 28.7 22.7 24.7 20.9 17.9 87 65 43 1014 1012 21 4 21 0.15
2015-8-10 26.2 22.7 19.2 21.7 19.7 17.8 94 85 75 1014 1010 32 2 32 4.67
2015-8-11 32.3 25.4 18.5 20.9 18.9 17.4 95 74 42 1014 1010 15 2 15 1.45
2015-8-12 36.0 27.6 19.2 20.0 17.7 15.5 87 59 32 1015 1013 17 2 17 0.00
2015-8-13 36.9 28.4 20.1 19.6 16.4 12.8 80 49 26 1015 1011 13 2 13 0.00
2015-8-14 33.1 25.6 18.2 20.7 17.5 14.8 83 64 36 1012 1008 15 2 15 0.00
2015-8-15 31.2 25.6 20.1 20.4 18.3 17.0 90 71 43 1010 1008 19 2 19 0.00
2015-8-16 26.6 22.7 18.9 19.4 17.8 15.6 93 79 55 1009 1007 13 2 13 0.69
2015-8-17 28.4 22.9 17.4 19.0 16.4 13.3 95 71 41 1011 1009 19 2 19 0.05
2015-8-18 31.1 24.0 16.9 18.7 15.2 12.3 86 63 33 1013 1011 15 2 15 0.03
2015-8-19 29.1 23.9 18.7 19.0 16.4 12.2 93 68 36 1015 1012 21 3 21 0.05
2015-8-20 30.4 23.2 15.9 17.6 15.6 13.9 91 67 40 1019 1015 19 2 19 0.00
2015-8-21 30.6 24.0 17.4 18.1 15.7 14.0 85 62 41 1019 1017 17 2 17 0.00
2015-8-22 30.6 23.2 15.8 15.1 13.1 10.9 79 54 32 1019 1014 17 3 17 0.00
2015-8-23 30.2 23.8 17.4 19.5 15.4 12.7 82 58 36 1014 1012 19 3 19 0.00
2015-8-24 29.4 25.6 21.7 23.3 21.2 18.2 95 79 56 1013 1009 26 5 26 0.30
2015-8-25 29.9 24.3 18.7 22.8 16.9 10.8 93 68 31 1017 1012 19 3 21 0.00
2015-8-26 31.7 22.9 14.1 16.9 14.1 11.1 85 59 33 1017 1015 15 2 15 0.00
2015-8-27 32.0 24.8 17.6 21.6 18.1 14.8 88 70 44 1017 1015 19 2 19 0.00
2015-8-28 31.9 25.1 18.3 22.0 19.3 16.7 91 69 50 1020 1017 19 2 19 0.00
2015-8-29 32.2 25.2 18.3 22.3 19.4 16.7 91 73 51 1021 1020 15 2 15 0.00
2015-8-30 33.9 25.8 17.6 19.2 16.1 12.2 90 62 29 1021 1019 15 2 15 0.00
2015-8-31 34.2 25.6 17.0 19.1 14.7 12.6 81 59 28 1019 1015 15 2 16 0.00
2015-9-1 32.2 25.2 18.2 22.0 17.2 12.4 89 59 33 1015 1012 17 3 17 0.00
2015-9-2 31.3 25.2 19.1 21.9 18.1 13.9 91 67 36 1013 1011 19 3 19 0.00
2015-9-3 30.6 25.2 19.8 21.4 17.9 15.1 93 69 45 1013 1011 17 2 17 0.00
2015-9-4 30.2 25.3 20.4 22.2 18.6 13.1 94 70 38 1013 1011 11 2 11 0.03
2015-9-5 28.6 23.8 19.1 19.7 16.1 11.9 92 67 39 1014 1010 19 3 19 0.05
2015-9-6 28.5 21.6 14.7 13.8 12.4 11.2 81 62 38 1017 1014 15 2 15 0.00
2015-9-7 28.4 21.2 13.9 13.7 12.2 10.6 81 53 37 1017 1015 24 3 24 0.00
2015-9-8 27.5 22.9 18.4 11.8 8.5 4.4 57 45 23 1018 1015 35 7 35 0.00
2015-9-9 26.9 19.9 12.8 10.7 8.5 5.8 67 44 29 1016 1012 32 6 32 0.00
2015-9-10 27.9 19.2 10.4 12.1 9.3 5.8 79 50 29 1016 1013 11 2 11 0.00
2015-9-11 27.6 20.4 13.2 16.3 11.3 8.2 84 61 35 1021 1016 15 2 15 0.03
2015-9-12 27.6 21.2 14.9 17.9 15.6 12.9 90 73 45 1022 1020 19 3 19 0.00
2015-9-13 25.0 21.4 17.8 19.8 17.2 14.2 95 84 66 1020 1013 19 3 19 0.94
2015-9-14 28.2 24.9 21.7 22.9 21.0 18.4 93 82 62 1013 1009 21 4 21 0.00
2015-9-15 28.7 22.7 16.7 20.5 17.9 13.2 94 73 40 1013 1011 19 2 19 0.03
2015-9-16 29.2 25.8 22.4 23.5 22.5 20.2 91 81 70 1011 1009 19 5 21 0.00
2015-9-17 30.6 27.2 23.8 22.6 21.3 18.4 90 76 53 1012 1009 20 4 23 0.00
2015-9-18 29.3 24.5 19.7 22.2 17.3 9.3 95 69 40 1017 1012 19 2 19 0.00
2015-9-19 27.7 21.7 15.7 16.4 13.3 10.7 86 62 41 1018 1014 11 2 11 0.00
2015-9-20 27.4 20.7 13.9 16.4 13.4 9.5 92 66 35 1015 1012 19 3 19 0.03
2015-9-21 27.6 20.1 12.6 14.6 12.0 10.0 90 61 34 1015 1011 20 2 20 0.00
2015-9-22 26.3 20.4 14.6 16.3 14.3 12.2 94 73 42 1012 1008 19 2 19 0.00
2015-9-23 23.3 17.4 11.6 17.4 13.8 9.0 94 76 56 1009 1005 19 2 19 0.00
2015-9-24 22.5 16.4 10.3 12.5 10.5 8.2 90 68 48 1013 1008 26 4 26 0.00
2015-9-25 24.4 20.5 16.6 13.6 12.2 11.1 72 62 48 1015 1012 19 3 19 0.00
2015-9-26 25.6 19.6 13.7 13.2 11.8 10.7 83 59 42 1016 1014 22 5 24 0.00
2015-9-27 25.3 20.9 16.5 10.9 9.5 8.5 62 50 37 1020 1016 26 4 26 0.00
2015-9-28 22.4 19.5 16.5 10.2 9.1 7.3 63 55 43 1021 1020 26 6 29 0.00
2015-9-29 22.8 18.8 14.8 10.2 8.7 6.8 62 52 42 1023 1019 32 8 32 0.00
2015-9-30 23.0 18.8 14.7 10.1 8.8 6.4 66 53 42 1022 1020 32 6 32 0.00
2015-10-1 16.7 15.7 14.6 13.0 11.7 6.7 89 79 53 1021 1017 37 10 37 0.79
2015-10-2 21.4 18.7 16.1 18.8 15.2 12.5 94 85 73 1021 1013 41 7 41 6.27
2015-10-3 23.3 19.1 14.8 16.1 14.5 13.1 96 81 55 1023 1021 9 2 10 0.20
2015-10-4 23.8 19.8 15.8 19.5 17.2 14.7 93 85 67 1022 1018 17 3 17 0.08
2015-10-5 26.3 22.1 17.8 20.4 18.4 16.2 95 83 57 1019 1014 15 2 15 0.00
2015-10-6 26.2 22.0 17.8 20.8 18.4 16.3 94 87 68 1014 1008 11 2 13 0.00
2015-10-7 23.2 19.9 16.6 18.8 16.4 14.2 96 84 64 1012 1007 19 3 19 0.25
2015-10-8 25.7 20.1 14.6 16.4 14.7 11.4 95 77 41 1015 1011 11 1 11 0.00
2015-10-9 23.7 17.9 12.2 16.2 13.2 10.6 91 73 54 1015 1011 15 2 15 0.00
2015-10-10 18.6 16.3 14.0 14.1 13.0 11.9 93 82 67 1011 1001 32 6 32 2.13
2015-10-11 23.1 17.8 12.6 13.9 11.2 9.1 92 69 46 1011 1003 19 4 19 0.00
2015-10-12 20.9 16.9 13.0 17.1 14.0 11.2 90 82 67 1015 1011 8 2 11 0.00
2015-10-13 22.3 19.4 16.6 18.6 17.4 15.9 96 89 78 1015 1008 20 3 20 0.41
2015-10-14 18.8 17.6 16.3 17.2 16.4 15.7 97 94 87 1010 1005 13 2 13 1.83
2015-10-15 18.9 15.6 12.2 16.2 12.6 8.9 96 84 68 1012 1006 15 2 15 2.03
2015-10-16 18.5 14.5 10.4 10.1 8.8 5.9 87 72 52 1016 1011 15 2 18 0.05
2015-10-17 19.6 14.4 9.2 11.9 9.8 7.6 92 77 56 1019 1016 9 2 11 0.00
2015-10-18 20.3 15.1 9.8 14.8 11.6 8.5 92 81 65 1019 1013 9 2 9 0.00
2015-10-19 22.1 17.2 12.4 16.7 14.2 11.4 96 86 60 1013 1010 9 1 11 0.13
2015-10-20 20.1 16.1 12.1 12.3 7.4 3.7 95 60 42 1013 1011 17 4 24 0.03
2015-10-21 18.3 14.7 11.1 7.2 5.4 3.9 63 55 42 1013 1010 26 5 26 0.00
2015-10-22 17.4 12.2 7.1 7.0 5.2 3.9 84 65 46 1014 1009 28 3 28 0.00
2015-10-23 21.0 13.9 6.8 8.2 6.3 4.4 85 59 39 1021 1014 24 4 24 0.00
2015-10-24 23.2 15.6 8.0 11.6 8.3 5.4 90 70 38 1022 1019 15 2 15 0.00
2015-10-25 20.3 14.6 8.7 14.8 10.9 7.5 95 85 62 1023 1021 6 1 6 0.00
2015-10-26 21.0 15.3 9.6 13.7 11.2 8.8 97 85 59 1022 1018 11 1 11 0.03
2015-10-27 18.2 16.2 14.1 15.7 13.9 11.3 90 83 68 1019 1017 9 2 9 0.25
2015-10-28 18.0 16.9 15.9 17.0 16.0 14.7 96 94 90 1017 1012 19 4 19 5.33
2015-10-29 17.0 13.0 9.0 15.1 11.4 8.2 97 92 84 1019 1011 17 1 17 1.47
2015-10-30 22.6 15.6 8.6 13.6 10.4 6.8 96 72 51 1022 1018 20 3 23 0.23
2015-10-31 20.3 17.2 14.0 9.6 7.7 5.0 65 53 46 1026 1021 39 8 39 0.00
2015-11-1 18.9 16.1 13.2 9.0 7.7 5.7 69 60 47 1028 1026 32 6 32 0.00
2015-11-2 20.6 14.9 9.2 11.1 8.5 6.9 91 69 49 1029 1028 19 2 19 0.00
2015-11-3 20.1 14.6 9.2 14.4 11.2 7.2 89 78 58 1029 1026 11 2 11 0.00
2015-11-4 22.2 18.8 15.3 17.2 15.6 13.7 96 86 71 1026 1021 9 1 9 0.00
2015-11-5 22.0 16.7 11.3 17.3 14.4 10.7 97 90 71 1023 1020 10 1 10 0.10
2015-11-6 20.8 15.4 9.9 15.1 12.4 9.4 98 88 68 1026 1023 13 1 13 0.03
2015-11-7 23.4 15.6 7.8 16.4 11.1 6.8 97 86 58 1028 1025 6 1 6 0.05
2015-11-8 21.8 14.6 7.4 16.0 11.3 6.3 96 87 61 1031 1028 6 1 6 0.03
2015-11-9 19.6 13.6 7.6 15.0 11.4 7.1 98 88 68 1030 1027 13 1 16 0.03
2015-11-10 20.7 16.4 12.1 15.6 13.9 11.0 96 88 70 1027 1025 7 1 7 0.00
2015-11-11 18.7 16.1 13.6 13.7 12.9 11.9 95 83 69 1026 1024 6 0 6 0.00
2015-11-12 19.3 16.1 12.8 13.6 12.0 10.7 91 80 64 1027 1025 8 1 8 0.00
2015-11-13 17.7 15.3 12.9 12.9 11.9 10.9 90 80 66 1029 1027 4 0 4 0.00
2015-11-14 19.5 13.9 8.4 14.6 11.7 7.8 97 84 66 1027 1022 7 1 7 0.00
2015-11-15 18.8 13.6 8.4 14.0 11.2 7.8 97 88 67 1024 1020 6 1 6 0.03
2015-11-16 18.4 13.6 8.8 13.7 10.6 8.2 97 90 73 1021 1019 6 1 13 0.03
2015-11-17 16.8 13.3 9.9 12.7 11.6 9.3 97 86 75 1022 1021 6 1 6 0.00
2015-11-18 19.1 14.2 9.3 13.8 11.1 8.7 97 87 70 1023 1021 6 1 6 0.03
2015-11-19 16.4 12.8 9.1 13.7 11.9 8.5 97 90 81 1024 1022 6 1 6 0.03
2015-11-20 19.1 15.7 12.3 14.7 13.2 11.4 96 87 71 1022 1004 11 2 11 0.00
2015-11-21 18.7 13.0 7.4 14.1 10.2 3.6 94 76 56 1004 989 40 7 40 2.06
2015-11-22 13.1 8.6 4.1 5.4 3.4 1.7 88 75 53 1010 989 20 2 20 0.36
2015-11-23 11.7 8.6 5.4 8.2 5.2 2.2 91 83 70 1019 1010 19 4 19 0.38
2015-11-24 13.8 9.2 4.7 5.9 4.2 1.6 90 72 56 1021 1017 18 3 18 0.15
2015-11-25 10.2 5.9 1.6 6.5 3.7 0.2 94 87 69 1016 1001 9 1 9 1.45
2015-11-26 10.8 6.8 2.8 4.9 2.3 0.3 92 74 54 1004 999 28 4 28 0.58
2015-11-27 12.1 6.6 1.2 3.2 1.4 -0.8 88 66 49 1010 1004 20 4 20 0.00
2015-11-28 12.8 6.3 -0.2 5.7 1.3 -1.9 90 77 50 1020 1010 7 1 7 0.00
2015-11-29 15.1 9.9 4.7 9.2 6.7 3.4 95 84 64 1027 1019 7 1 7 0.00
2015-11-30 15.7 10.9 6.1 10.8 7.6 5.4 96 89 70 1029 1027 6 1 6 0.00
2015-12-1 17.4 10.7 3.9 11.2 7.3 3.3 97 85 61 1028 1026 6 1 6 0.05
2015-12-2 16.0 10.2 4.4 11.2 7.9 3.7 97 87 70 1031 1028 9 1 10 0.03
2015-12-3 14.2 12.4 10.6 10.3 8.9 8.0 87 81 76 1032 1030 6 1 6 0.00
2015-12-4 12.7 11.1 9.6 9.7 8.6 7.6 90 85 80 1034 1032 6 1 6 0.00
2015-12-5 15.8 11.5 7.1 10.3 8.7 6.2 95 85 62 1035 1034 6 1 6 0.00
2015-12-6 15.3 11.2 7.1 9.8 7.9 6.2 95 84 68 1036 1034 7 1 7 0.00
2015-12-7 15.1 12.0 8.9 11.1 8.7 5.9 95 81 71 1035 1033 9 2 9 0.00
2015-12-8 16.2 11.9 7.6 11.9 10.1 6.9 96 86 73 1034 1031 7 1 7 0.00
2015-12-9 15.7 10.9 6.1 12.9 8.8 5.3 98 93 80 1032 1030 6 1 6 0.03
2015-12-10 16.2 9.4 2.7 7.2 3.9 0.7 96 70 43 1034 1031 22 3 22 0.03
2015-12-11 16.5 8.9 1.4 10.6 4.6 -0.2 96 86 66 1033 1030 11 1 14 0.00
2015-12-12 15.6 9.7 3.8 10.6 6.1 3.1 97 88 61 1030 1027 9 1 9 0.03
2015-12-13 13.5 9.6 5.6 9.9 7.4 4.7 96 89 73 1027 1023 7 2 7 0.00
2015-12-14 13.9 11.3 8.7 8.7 6.9 5.6 85 77 63 1026 1023 7 1 7 0.00
2015-12-15 16.3 11.6 6.8 10.9 8.1 4.9 93 81 65 1028 1026 11 1 11 0.00
2015-12-16 16.3 10.9 5.6 12.7 10.1 4.7 96 92 79 1030 1028 6 1 6 0.20
2015-12-17 17.5 10.4 3.3 9.9 5.4 2.1 96 83 42 1031 1028 6 1 6 0.03
2015-12-18 14.9 9.3 3.8 11.7 8.0 2.9 98 93 81 1030 1027 4 1 4 0.03
2015-12-19 15.8 10.9 6.1 12.8 10.2 5.6 97 93 79 1028 1026 6 0 6 0.08
2015-12-20 15.2 9.6 4.1 11.8 7.3 3.5 98 91 72 1032 1027 6 1 10 0.05
2015-12-21 15.7 10.1 4.4 11.7 8.7 3.9 98 92 76 1035 1032 8 1 8 0.03
2015-12-22 15.2 11.8 8.4 13.3 10.8 7.8 97 93 87 1037 1035 6 1 6 0.03
2015-12-23 14.2 11.8 9.3 11.9 10.5 8.9 97 93 85 1035 1033 6 2 10 0.03
2015-12-24 15.0 12.7 10.4 12.3 10.6 9.3 96 91 82 1033 1032 11 2 11 0.00
2015-12-25 13.9 10.4 7.0 12.3 10.5 6.4 97 93 87 1036 1033 9 2 10 0.05
2015-12-26 15.2 9.9 4.6 12.3 8.1 4.0 98 93 75 1035 1032 6 1 6 0.03
2015-12-27 15.6 9.3 3.1 11.7 6.2 2.6 98 91 70 1034 1032 9 1 9 0.03
2015-12-28 15.4 8.8 2.1 11.2 7.1 1.6 98 90 71 1034 1031 9 1 9 0.00
2015-12-29 14.6 10.8 7.1 9.4 7.6 5.8 94 85 66 1031 1028 9 1 9 0.00
2015-12-30 15.2 10.9 6.6 10.3 6.6 1.6 96 78 49 1028 1025 22 3 22 0.05
2015-12-31 10.9 8.4 5.9 5.1 3.1 1.2 80 70 59 1027 1025 13 2 14 0.05
2016-1-1 14.0 10.4 6.9 7.1 4.6 2.9 84 74 57 1026 1023 9 2 9 0.00